Henning, Minnesota
Current Conditions -  °F | °C
As of 9:52 AM on Thursday 23 Oct 2014 (Local Time) from KADC Reporting Station
Moderate Fog Moderate Fog  
Wind Chill: 46°   Ceiling: 100
Heat Index: 46°   Visibility: 0.5mi
Dew Point: 46°   Wind: 3mph
Humidity: 100%   Direction: 180°S
Pressure: 29.95"   Gusts: NA
Location:  46.32°N, 95.45°W
Report Text: KADC 231452Z AUTO 18003KT 1/2SM FG OVC001 08/08 A2995 RMK AO2
Loading
Personal Weather Stations






























Interactive Weather Map New forecast layout! Learn more

10-Day Weather Forecast

Advertisements
Track Severe Weather on mobile